sensor_id;sensor_type;location;lat;lon;timestamp;P1;durP1;ratioP1;P2;durP2;ratioP2
43070;SDS011;36278;47.952;21.714;2023-04-25T00:01:45;19.93;;;16.97;;
43070;SDS011;36278;47.952;21.714;2023-04-25T00:04:11;17.70;;;15.80;;
43070;SDS011;36278;47.952;21.714;2023-04-25T00:06:37;17.57;;;15.77;;
43070;SDS011;36278;47.952;21.714;2023-04-25T00:09:05;17.47;;;15.57;;
43070;SDS011;36278;47.952;21.714;2023-04-25T00:11:36;20.70;;;16.77;;
43070;SDS011;36278;47.952;21.714;2023-04-25T00:14:02;17.77;;;15.87;;
43070;SDS011;36278;47.952;21.714;2023-04-25T00:16:28;18.40;;;16.60;;
43070;SDS011;36278;47.952;21.714;2023-04-25T00:18:55;18.40;;;16.60;;
43070;SDS011;36278;47.952;21.714;2023-04-25T00:21:21;18.67;;;16.67;;
43070;SDS011;36278;47.952;21.714;2023-04-25T00:23:52;17.30;;;15.60;;
43070;SDS011;36278;47.952;21.714;2023-04-25T00:26:17;18.13;;;16.33;;
43070;SDS011;36278;47.952;21.714;2023-04-25T00:28:43;18.80;;;15.37;;
43070;SDS011;36278;47.952;21.714;2023-04-25T00:31:09;20.70;;;16.03;;
43070;SDS011;36278;47.952;21.714;2023-04-25T00:33:34;17.87;;;15.43;;
43070;SDS011;36278;47.952;21.714;2023-04-25T00:36:00;18.50;;;16.47;;
43070;SDS011;36278;47.952;21.714;2023-04-25T00:38:25;19.13;;;15.33;;
43070;SDS011;36278;47.952;21.714;2023-04-25T00:40:51;18.30;;;16.40;;
43070;SDS011;36278;47.952;21.714;2023-04-25T00:43:18;17.27;;;15.57;;
43070;SDS011;36278;47.952;21.714;2023-04-25T00:45:43;18.90;;;16.97;;
43070;SDS011;36278;47.952;21.714;2023-04-25T00:48:11;19.17;;;16.80;;
43070;SDS011;36278;47.952;21.714;2023-04-25T00:50:39;17.87;;;16.10;;
43070;SDS011;36278;47.952;21.714;2023-04-25T00:53:05;18.10;;;16.20;;
43070;SDS011;36278;47.952;21.714;2023-04-25T00:55:31;18.50;;;16.70;;
43070;SDS011;36278;47.952;21.714;2023-04-25T00:57:59;21.40;;;18.53;;
43070;SDS011;36278;47.952;21.714;2023-04-25T01:00:25;19.37;;;17.37;;
43070;SDS011;36278;47.952;21.714;2023-04-25T01:02:51;18.80;;;16.50;;
43070;SDS011;36278;47.952;21.714;2023-04-25T01:05:17;18.90;;;16.83;;
43070;SDS011;36278;47.952;21.714;2023-04-25T01:07:44;19.57;;;16.73;;
43070;SDS011;36278;47.952;21.714;2023-04-25T01:10:10;19.37;;;17.23;;
43070;SDS011;36278;47.952;21.714;2023-04-25T01:12:35;18.93;;;16.83;;
43070;SDS011;36278;47.952;21.714;2023-04-25T01:15:01;19.20;;;17.27;;
43070;SDS011;36278;47.952;21.714;2023-04-25T01:17:27;19.40;;;17.50;;
43070;SDS011;36278;47.952;21.714;2023-04-25T01:19:54;20.70;;;18.33;;
43070;SDS011;36278;47.952;21.714;2023-04-25T01:22:19;20.13;;;17.70;;
43070;SDS011;36278;47.952;21.714;2023-04-25T01:24:45;20.70;;;18.50;;
43070;SDS011;36278;47.952;21.714;2023-04-25T01:27:11;22.33;;;18.77;;
43070;SDS011;36278;47.952;21.714;2023-04-25T01:29:37;21.17;;;18.97;;
43070;SDS011;36278;47.952;21.714;2023-04-25T01:32:04;21.90;;;18.87;;
43070;SDS011;36278;47.952;21.714;2023-04-25T01:34:31;20.80;;;18.70;;
43070;SDS011;36278;47.952;21.714;2023-04-25T01:36:56;19.83;;;17.80;;
43070;SDS011;36278;47.952;21.714;2023-04-25T01:39:25;21.63;;;19.37;;
43070;SDS011;36278;47.952;21.714;2023-04-25T01:41:51;20.47;;;18.47;;
43070;SDS011;36278;47.952;21.714;2023-04-25T01:44:16;21.10;;;18.87;;
43070;SDS011;36278;47.952;21.714;2023-04-25T01:46:42;21.60;;;19.50;;
43070;SDS011;36278;47.952;21.714;2023-04-25T01:49:08;19.90;;;18.00;;
43070;SDS011;36278;47.952;21.714;2023-04-25T01:51:33;21.23;;;19.20;;
43070;SDS011;36278;47.952;21.714;2023-04-25T01:53:59;21.97;;;19.47;;
43070;SDS011;36278;47.952;21.714;2023-04-25T01:56:27;23.00;;;19.60;;
43070;SDS011;36278;47.952;21.714;2023-04-25T01:58:55;21.27;;;19.13;;
43070;SDS011;36278;47.952;21.714;2023-04-25T02:01:20;20.63;;;18.47;;
43070;SDS011;36278;47.952;21.714;2023-04-25T02:03:46;22.47;;;18.90;;
43070;SDS011;36278;47.952;21.714;2023-04-25T02:06:11;20.20;;;18.20;;
43070;SDS011;36278;47.952;21.714;2023-04-25T02:08:37;20.50;;;18.43;;
43070;SDS011;36278;47.952;21.714;2023-04-25T02:11:02;20.60;;;18.50;;
43070;SDS011;36278;47.952;21.714;2023-04-25T02:13:28;20.40;;;18.17;;
43070;SDS011;36278;47.952;21.714;2023-04-25T02:15:54;20.17;;;18.00;;
43070;SDS011;36278;47.952;21.714;2023-04-25T02:18:19;19.77;;;17.80;;
43070;SDS011;36278;47.952;21.714;2023-04-25T02:20:46;19.87;;;17.97;;
43070;SDS011;36278;47.952;21.714;2023-04-25T02:23:11;21.60;;;19.10;;
43070;SDS011;36278;47.952;21.714;2023-04-25T02:25:37;21.47;;;18.90;;
43070;SDS011;36278;47.952;21.714;2023-04-25T02:28:03;19.13;;;17.17;;
43070;SDS011;36278;47.952;21.714;2023-04-25T02:30:29;19.50;;;17.57;;
43070;SDS011;36278;47.952;21.714;2023-04-25T02:32:54;21.30;;;19.10;;
43070;SDS011;36278;47.952;21.714;2023-04-25T02:35:21;21.07;;;18.90;;
43070;SDS011;36278;47.952;21.714;2023-04-25T02:37:47;19.97;;;18.00;;
43070;SDS011;36278;47.952;21.714;2023-04-25T02:40:12;20.53;;;18.43;;
43070;SDS011;36278;47.952;21.714;2023-04-25T02:42:38;21.10;;;18.90;;
43070;SDS011;36278;47.952;21.714;2023-04-25T02:45:03;21.10;;;18.80;;
43070;SDS011;36278;47.952;21.714;2023-04-25T02:47:30;20.13;;;18.13;;
43070;SDS011;36278;47.952;21.714;2023-04-25T02:49:55;21.67;;;17.77;;
43070;SDS011;36278;47.952;21.714;2023-04-25T02:52:21;19.90;;;18.00;;
43070;SDS011;36278;47.952;21.714;2023-04-25T02:54:46;19.20;;;17.20;;
43070;SDS011;36278;47.952;21.714;2023-04-25T02:57:12;19.63;;;17.60;;
43070;SDS011;36278;47.952;21.714;2023-04-25T02:59:37;18.80;;;16.90;;
43070;SDS011;36278;47.952;21.714;2023-04-25T03:02:03;19.33;;;17.33;;
43070;SDS011;36278;47.952;21.714;2023-04-25T03:04:28;19.40;;;17.50;;
43070;SDS011;36278;47.952;21.714;2023-04-25T03:06:53;18.33;;;16.40;;
43070;SDS011;36278;47.952;21.714;2023-04-25T03:09:19;18.83;;;16.67;;
43070;SDS011;36278;47.952;21.714;2023-04-25T03:11:45;18.30;;;16.30;;
43070;SDS011;36278;47.952;21.714;2023-04-25T03:14:11;18.33;;;16.43;;
43070;SDS011;36278;47.952;21.714;2023-04-25T03:16:37;20.63;;;18.17;;
43070;SDS011;36278;47.952;21.714;2023-04-25T03:19:03;18.83;;;16.83;;
43070;SDS011;36278;47.952;21.714;2023-04-25T03:21:29;19.20;;;17.20;;
43070;SDS011;36278;47.952;21.714;2023-04-25T03:23:57;17.73;;;15.93;;
43070;SDS011;36278;47.952;21.714;2023-04-25T03:26:23;18.97;;;17.17;;
43070;SDS011;36278;47.952;21.714;2023-04-25T03:28:48;18.97;;;16.97;;
43070;SDS011;36278;47.952;21.714;2023-04-25T03:31:14;20.23;;;18.30;;
43070;SDS011;36278;47.952;21.714;2023-04-25T03:33:39;18.23;;;16.33;;
43070;SDS011;36278;47.952;21.714;2023-04-25T03:36:05;18.30;;;16.40;;
43070;SDS011;36278;47.952;21.714;2023-04-25T03:38:31;20.10;;;18.10;;
43070;SDS011;36278;47.952;21.714;2023-04-25T03:40:56;20.00;;;18.10;;
43070;SDS011;36278;47.952;21.714;2023-04-25T03:43:22;19.97;;;17.83;;
43070;SDS011;36278;47.952;21.714;2023-04-25T03:45:47;20.63;;;18.53;;
43070;SDS011;36278;47.952;21.714;2023-04-25T03:48:13;20.17;;;18.17;;
43070;SDS011;36278;47.952;21.714;2023-04-25T03:50:39;19.20;;;17.30;;
43070;SDS011;36278;47.952;21.714;2023-04-25T03:53:04;19.80;;;17.90;;
43070;SDS011;36278;47.952;21.714;2023-04-25T03:55:31;20.43;;;18.33;;
43070;SDS011;36278;47.952;21.714;2023-04-25T03:57:57;20.33;;;18.23;;
43070;SDS011;36278;47.952;21.714;2023-04-25T04:00:24;20.67;;;18.47;;
43070;SDS011;36278;47.952;21.714;2023-04-25T04:02:50;21.47;;;19.23;;
43070;SDS011;36278;47.952;21.714;2023-04-25T04:05:16;22.07;;;19.77;;
43070;SDS011;36278;47.952;21.714;2023-04-25T04:07:42;21.13;;;19.07;;
43070;SDS011;36278;47.952;21.714;2023-04-25T04:10:10;21.67;;;19.57;;
43070;SDS011;36278;47.952;21.714;2023-04-25T04:12:35;21.63;;;19.47;;
43070;SDS011;36278;47.952;21.714;2023-04-25T04:15:04;21.97;;;19.77;;
43070;SDS011;36278;47.952;21.714;2023-04-25T04:17:30;21.10;;;18.83;;
43070;SDS011;36278;47.952;21.714;2023-04-25T04:19:56;20.37;;;18.37;;
43070;SDS011;36278;47.952;21.714;2023-04-25T04:22:22;20.73;;;18.63;;
43070;SDS011;36278;47.952;21.714;2023-04-25T04:24:48;20.27;;;18.30;;
43070;SDS011;36278;47.952;21.714;2023-04-25T04:27:15;20.30;;;18.30;;
43070;SDS011;36278;47.952;21.714;2023-04-25T04:29:42;20.67;;;18.20;;
43070;SDS011;36278;47.952;21.714;2023-04-25T04:32:08;20.93;;;18.77;;
43070;SDS011;36278;47.952;21.714;2023-04-25T04:34:34;20.47;;;18.47;;
43070;SDS011;36278;47.952;21.714;2023-04-25T04:37:00;19.83;;;17.97;;
43070;SDS011;36278;47.952;21.714;2023-04-25T04:39:26;22.00;;;19.47;;
43070;SDS011;36278;47.952;21.714;2023-04-25T04:41:51;22.50;;;20.30;;
43070;SDS011;36278;47.952;21.714;2023-04-25T04:44:17;23.50;;;21.07;;
43070;SDS011;36278;47.952;21.714;2023-04-25T04:46:43;23.23;;;20.87;;
43070;SDS011;36278;47.952;21.714;2023-04-25T04:49:09;24.17;;;20.77;;
43070;SDS011;36278;47.952;21.714;2023-04-25T04:51:36;23.53;;;20.27;;
43070;SDS011;36278;47.952;21.714;2023-04-25T04:54:02;22.60;;;20.20;;
43070;SDS011;36278;47.952;21.714;2023-04-25T04:56:28;21.73;;;19.53;;
43070;SDS011;36278;47.952;21.714;2023-04-25T04:58:56;21.50;;;19.23;;
43070;SDS011;36278;47.952;21.714;2023-04-25T05:01:25;20.70;;;18.60;;
43070;SDS011;36278;47.952;21.714;2023-04-25T05:03:51;21.30;;;18.47;;
43070;SDS011;36278;47.952;21.714;2023-04-25T05:06:17;21.17;;;18.73;;
43070;SDS011;36278;47.952;21.714;2023-04-25T05:08:43;30.53;;;27.53;;
43070;SDS011;36278;47.952;21.714;2023-04-25T05:11:09;23.70;;;18.50;;
43070;SDS011;36278;47.952;21.714;2023-04-25T05:13:34;19.40;;;17.40;;
43070;SDS011;36278;47.952;21.714;2023-04-25T05:16:00;18.53;;;16.63;;
43070;SDS011;36278;47.952;21.714;2023-04-25T05:18:25;18.73;;;16.93;;
43070;SDS011;36278;47.952;21.714;2023-04-25T05:20:51;17.57;;;15.77;;
43070;SDS011;36278;47.952;21.714;2023-04-25T05:23:16;19.13;;;17.17;;
43070;SDS011;36278;47.952;21.714;2023-04-25T05:25:42;19.03;;;17.03;;
43070;SDS011;36278;47.952;21.714;2023-04-25T05:28:08;17.43;;;15.67;;
43070;SDS011;36278;47.952;21.714;2023-04-25T05:30:33;15.73;;;14.10;;
43070;SDS011;36278;47.952;21.714;2023-04-25T05:33:00;15.40;;;13.90;;
43070;SDS011;36278;47.952;21.714;2023-04-25T05:35:25;16.50;;;14.77;;
43070;SDS011;36278;47.952;21.714;2023-04-25T05:37:51;15.77;;;14.10;;
43070;SDS011;36278;47.952;21.714;2023-04-25T05:40:16;15.80;;;14.10;;
43070;SDS011;36278;47.952;21.714;2023-04-25T05:42:42;15.40;;;13.80;;
43070;SDS011;36278;47.952;21.714;2023-04-25T05:45:07;15.60;;;14.00;;
43070;SDS011;36278;47.952;21.714;2023-04-25T05:47:33;14.37;;;12.87;;
43070;SDS011;36278;47.952;21.714;2023-04-25T05:49:59;15.33;;;12.63;;
43070;SDS011;36278;47.952;21.714;2023-04-25T05:52:25;15.30;;;13.77;;
43070;SDS011;36278;47.952;21.714;2023-04-25T05:54:50;15.73;;;13.33;;
43070;SDS011;36278;47.952;21.714;2023-04-25T05:57:25;16.43;;;13.03;;
43070;SDS011;36278;47.952;21.714;2023-04-25T05:59:52;15.67;;;13.10;;
43070;SDS011;36278;47.952;21.714;2023-04-25T06:02:18;14.23;;;12.83;;
43070;SDS011;36278;47.952;21.714;2023-04-25T06:04:44;14.80;;;12.97;;
43070;SDS011;36278;47.952;21.714;2023-04-25T06:07:10;13.87;;;12.47;;
43070;SDS011;36278;47.952;21.714;2023-04-25T06:09:36;14.43;;;12.97;;
43070;SDS011;36278;47.952;21.714;2023-04-25T06:12:01;14.17;;;12.43;;
43070;SDS011;36278;47.952;21.714;2023-04-25T06:14:27;15.30;;;13.70;;
43070;SDS011;36278;47.952;21.714;2023-04-25T06:16:53;15.73;;;14.13;;
43070;SDS011;36278;47.952;21.714;2023-04-25T06:19:18;16.73;;;13.50;;
43070;SDS011;36278;47.952;21.714;2023-04-25T06:21:44;15.60;;;14.10;;
43070;SDS011;36278;47.952;21.714;2023-04-25T06:24:09;19.00;;;14.40;;
43070;SDS011;36278;47.952;21.714;2023-04-25T06:26:35;15.97;;;13.93;;
43070;SDS011;36278;47.952;21.714;2023-04-25T06:29:01;16.37;;;14.83;;
43070;SDS011;36278;47.952;21.714;2023-04-25T06:31:27;17.77;;;15.43;;
43070;SDS011;36278;47.952;21.714;2023-04-25T06:33:54;16.80;;;15.07;;
43070;SDS011;36278;47.952;21.714;2023-04-25T06:36:20;16.60;;;14.90;;
43070;SDS011;36278;47.952;21.714;2023-04-25T06:38:52;15.70;;;14.10;;
43070;SDS011;36278;47.952;21.714;2023-04-25T06:41:19;15.63;;;14.03;;
43070;SDS011;36278;47.952;21.714;2023-04-25T06:43:45;15.20;;;13.40;;
43070;SDS011;36278;47.952;21.714;2023-04-25T06:46:10;16.00;;;14.40;;
43070;SDS011;36278;47.952;21.714;2023-04-25T06:48:36;15.13;;;13.57;;
43070;SDS011;36278;47.952;21.714;2023-04-25T06:51:02;15.10;;;13.47;;
43070;SDS011;36278;47.952;21.714;2023-04-25T06:53:27;16.17;;;13.30;;
43070;SDS011;36278;47.952;21.714;2023-04-25T06:55:53;16.17;;;14.23;;
43070;SDS011;36278;47.952;21.714;2023-04-25T06:58:18;16.60;;;13.83;;
43070;SDS011;36278;47.952;21.714;2023-04-25T07:00:44;14.07;;;12.73;;
43070;SDS011;36278;47.952;21.714;2023-04-25T07:03:09;14.53;;;12.53;;
43070;SDS011;36278;47.952;21.714;2023-04-25T07:05:35;15.13;;;13.27;;
43070;SDS011;36278;47.952;21.714;2023-04-25T07:08:00;17.50;;;12.67;;
43070;SDS011;36278;47.952;21.714;2023-04-25T07:10:26;16.87;;;14.23;;
43070;SDS011;36278;47.952;21.714;2023-04-25T07:12:52;17.67;;;14.73;;
43070;SDS011;36278;47.952;21.714;2023-04-25T07:15:17;15.00;;;13.40;;
43070;SDS011;36278;47.952;21.714;2023-04-25T07:17:43;15.30;;;13.70;;
43070;SDS011;36278;47.952;21.714;2023-04-25T07:20:08;15.93;;;12.80;;
43070;SDS011;36278;47.952;21.714;2023-04-25T07:22:35;13.30;;;11.87;;
43070;SDS011;36278;47.952;21.714;2023-04-25T07:25:01;14.17;;;12.33;;
43070;SDS011;36278;47.952;21.714;2023-04-25T07:27:27;14.73;;;11.67;;
43070;SDS011;36278;47.952;21.714;2023-04-25T07:29:52;17.07;;;13.43;;
43070;SDS011;36278;47.952;21.714;2023-04-25T07:32:18;14.50;;;12.47;;
43070;SDS011;36278;47.952;21.714;2023-04-25T07:34:44;17.07;;;12.87;;
43070;SDS011;36278;47.952;21.714;2023-04-25T07:37:09;14.77;;;11.77;;
43070;SDS011;36278;47.952;21.714;2023-04-25T07:39:35;13.10;;;11.80;;
43070;SDS011;36278;47.952;21.714;2023-04-25T07:42:02;14.77;;;11.10;;
43070;SDS011;36278;47.952;21.714;2023-04-25T07:44:28;16.20;;;11.50;;
43070;SDS011;36278;47.952;21.714;2023-04-25T07:46:55;15.57;;;12.00;;
43070;SDS011;36278;47.952;21.714;2023-04-25T07:49:21;11.83;;;10.63;;
43070;SDS011;36278;47.952;21.714;2023-04-25T07:51:46;12.47;;;11.17;;
43070;SDS011;36278;47.952;21.714;2023-04-25T07:54:13;15.00;;;12.07;;
43070;SDS011;36278;47.952;21.714;2023-04-25T07:56:39;15.10;;;12.20;;
43070;SDS011;36278;47.952;21.714;2023-04-25T07:59:05;13.60;;;11.90;;
43070;SDS011;36278;47.952;21.714;2023-04-25T08:01:30;16.57;;;12.97;;
43070;SDS011;36278;47.952;21.714;2023-04-25T08:03:56;14.37;;;12.13;;
43070;SDS011;36278;47.952;21.714;2023-04-25T08:06:22;14.97;;;11.63;;
43070;SDS011;36278;47.952;21.714;2023-04-25T08:08:47;13.40;;;12.00;;
43070;SDS011;36278;47.952;21.714;2023-04-25T08:11:13;14.70;;;13.20;;
43070;SDS011;36278;47.952;21.714;2023-04-25T08:13:38;14.23;;;12.77;;
43070;SDS011;36278;47.952;21.714;2023-04-25T08:16:04;15.70;;;12.83;;
43070;SDS011;36278;47.952;21.714;2023-04-25T08:18:29;14.27;;;12.77;;
43070;SDS011;36278;47.952;21.714;2023-04-25T08:20:55;15.37;;;13.03;;
43070;SDS011;36278;47.952;21.714;2023-04-25T08:23:21;17.53;;;13.27;;
43070;SDS011;36278;47.952;21.714;2023-04-25T08:25:47;15.83;;;13.97;;
43070;SDS011;36278;47.952;21.714;2023-04-25T08:28:12;23.50;;;14.73;;
43070;SDS011;36278;47.952;21.714;2023-04-25T08:30:38;20.87;;;16.07;;
43070;SDS011;36278;47.952;21.714;2023-04-25T08:33:03;18.17;;;15.63;;
43070;SDS011;36278;47.952;21.714;2023-04-25T08:35:29;19.37;;;16.20;;
43070;SDS011;36278;47.952;21.714;2023-04-25T08:37:55;21.43;;;16.73;;
43070;SDS011;36278;47.952;21.714;2023-04-25T08:40:20;22.63;;;18.23;;
43070;SDS011;36278;47.952;21.714;2023-04-25T08:42:51;25.20;;;18.90;;
43070;SDS011;36278;47.952;21.714;2023-04-25T08:45:18;19.73;;;17.70;;
43070;SDS011;36278;47.952;21.714;2023-04-25T08:47:44;20.80;;;18.17;;
43070;SDS011;36278;47.952;21.714;2023-04-25T08:50:11;20.77;;;18.23;;
43070;SDS011;36278;47.952;21.714;2023-04-25T08:52:40;22.20;;;19.93;;
43070;SDS011;36278;47.952;21.714;2023-04-25T08:55:10;21.23;;;19.02;;
43070;SDS011;36278;47.952;21.714;2023-04-25T08:57:38;22.80;;;20.50;;
43070;SDS011;36278;47.952;21.714;2023-04-25T09:00:04;23.80;;;21.17;;
43070;SDS011;36278;47.952;21.714;2023-04-25T09:02:30;22.37;;;20.17;;
43070;SDS011;36278;47.952;21.714;2023-04-25T09:04:56;22.57;;;20.37;;
43070;SDS011;36278;47.952;21.714;2023-04-25T09:07:22;23.97;;;21.03;;
43070;SDS011;36278;47.952;21.714;2023-04-25T09:09:47;24.37;;;21.87;;
43070;SDS011;36278;47.952;21.714;2023-04-25T09:12:13;25.43;;;22.70;;
43070;SDS011;36278;47.952;21.714;2023-04-25T09:14:38;25.57;;;22.87;;
43070;SDS011;36278;47.952;21.714;2023-04-25T09:17:04;26.43;;;23.47;;
43070;SDS011;36278;47.952;21.714;2023-04-25T09:19:33;27.20;;;24.23;;
43070;SDS011;36278;47.952;21.714;2023-04-25T09:22:04;26.77;;;24.00;;
43070;SDS011;36278;47.952;21.714;2023-04-25T09:24:39;32.40;;;25.93;;
43070;SDS011;36278;47.952;21.714;2023-04-25T09:27:10;27.23;;;24.33;;
43070;SDS011;36278;47.952;21.714;2023-04-25T09:29:38;33.47;;;24.87;;
43070;SDS011;36278;47.952;21.714;2023-04-25T09:32:18;15.03;;;8.30;;
43070;SDS011;36278;47.952;21.714;2023-04-25T09:34:46;6.70;;;3.00;;
43070;SDS011;36278;47.952;21.714;2023-04-25T09:37:24;6.47;;;2.30;;
43070;SDS011;36278;47.952;21.714;2023-04-25T09:39:57;13.40;;;3.17;;
43070;SDS011;36278;47.952;21.714;2023-04-25T09:42:30;10.20;;;2.97;;
43070;SDS011;36278;47.952;21.714;2023-04-25T09:44:57;9.77;;;2.07;;
43070;SDS011;36278;47.952;21.714;2023-04-25T09:47:24;6.37;;;2.43;;
43070;SDS011;36278;47.952;21.714;2023-04-25T09:49:52;5.37;;;2.50;;
43070;SDS011;36278;47.952;21.714;2023-04-25T09:52:24;6.33;;;2.43;;
43070;SDS011;36278;47.952;21.714;2023-04-25T09:54:52;6.07;;;2.80;;
43070;SDS011;36278;47.952;21.714;2023-04-25T09:57:19;5.63;;;2.27;;
43070;SDS011;36278;47.952;21.714;2023-04-25T09:59:47;4.90;;;1.90;;
43070;SDS011;36278;47.952;21.714;2023-04-25T10:02:14;6.20;;;3.93;;
43070;SDS011;36278;47.952;21.714;2023-04-25T10:04:42;2.37;;;1.57;;
43070;SDS011;36278;47.952;21.714;2023-04-25T10:07:10;5.03;;;2.30;;
43070;SDS011;36278;47.952;21.714;2023-04-25T10:09:38;7.10;;;2.07;;
43070;SDS011;36278;47.952;21.714;2023-04-25T10:12:06;6.03;;;2.23;;
43070;SDS011;36278;47.952;21.714;2023-04-25T10:14:33;5.90;;;2.00;;
43070;SDS011;36278;47.952;21.714;2023-04-25T10:17:00;7.97;;;2.67;;
43070;SDS011;36278;47.952;21.714;2023-04-25T10:19:26;5.40;;;2.83;;
43070;SDS011;36278;47.952;21.714;2023-04-25T10:25:00;7.70;;;1.77;;
43070;SDS011;36278;47.952;21.714;2023-04-25T10:27:29;5.63;;;1.93;;
43070;SDS011;36278;47.952;21.714;2023-04-25T10:30:03;2.40;;;1.80;;
43070;SDS011;36278;47.952;21.714;2023-04-25T10:32:34;3.00;;;2.00;;
43070;SDS011;36278;47.952;21.714;2023-04-25T10:38:04;2.97;;;1.87;;
43070;SDS011;36278;47.952;21.714;2023-04-25T10:40:31;4.10;;;1.90;;
43070;SDS011;36278;47.952;21.714;2023-04-25T10:46:03;4.67;;;1.97;;
43070;SDS011;36278;47.952;21.714;2023-04-25T10:48:47;5.37;;;1.37;;
43070;SDS011;36278;47.952;21.714;2023-04-25T10:51:16;5.90;;;2.00;;
43070;SDS011;36278;47.952;21.714;2023-04-25T10:53:45;3.93;;;1.93;;
43070;SDS011;36278;47.952;21.714;2023-04-25T10:59:07;3.10;;;1.50;;
43070;SDS011;36278;47.952;21.714;2023-04-25T11:01:44;3.17;;;1.83;;
43070;SDS011;36278;47.952;21.714;2023-04-25T11:09:34;3.37;;;1.50;;
43070;SDS011;36278;47.952;21.714;2023-04-25T11:12:04;1.73;;;1.37;;
43070;SDS011;36278;47.952;21.714;2023-04-25T11:14:33;4.03;;;1.70;;
43070;SDS011;36278;47.952;21.714;2023-04-25T11:17:00;4.03;;;1.70;;
43070;SDS011;36278;47.952;21.714;2023-04-25T11:19:27;2.23;;;1.60;;
43070;SDS011;36278;47.952;21.714;2023-04-25T11:21:58;2.50;;;1.67;;
43070;SDS011;36278;47.952;21.714;2023-04-25T11:24:29;2.30;;;1.40;;
43070;SDS011;36278;47.952;21.714;2023-04-25T11:26:58;2.37;;;1.70;;
43070;SDS011;36278;47.952;21.714;2023-04-25T11:29:28;2.63;;;1.70;;
43070;SDS011;36278;47.952;21.714;2023-04-25T11:31:55;2.67;;;1.77;;
43070;SDS011;36278;47.952;21.714;2023-04-25T11:34:23;3.53;;;1.80;;
43070;SDS011;36278;47.952;21.714;2023-04-25T11:36:50;2.33;;;1.73;;
43070;SDS011;36278;47.952;21.714;2023-04-25T11:39:17;2.83;;;1.87;;
43070;SDS011;36278;47.952;21.714;2023-04-25T11:41:44;2.00;;;1.80;;
43070;SDS011;36278;47.952;21.714;2023-04-25T11:44:11;3.07;;;2.00;;
43070;SDS011;36278;47.952;21.714;2023-04-25T11:46:37;3.43;;;1.80;;
43070;SDS011;36278;47.952;21.714;2023-04-25T11:49:02;17.00;;;10.67;;
43070;SDS011;36278;47.952;21.714;2023-04-25T11:51:30;3.83;;;2.00;;
43070;SDS011;36278;47.952;21.714;2023-04-25T11:54:02;3.45;;;2.25;;
43070;SDS011;36278;47.952;21.714;2023-04-25T11:56:31;5.07;;;2.50;;
43070;SDS011;36278;47.952;21.714;2023-04-25T11:58:58;3.03;;;1.80;;
43070;SDS011;36278;47.952;21.714;2023-04-25T12:03:55;3.13;;;1.90;;
43070;SDS011;36278;47.952;21.714;2023-04-25T12:06:25;4.50;;;2.07;;
43070;SDS011;36278;47.952;21.714;2023-04-25T12:09:04;2.37;;;1.70;;
43070;SDS011;36278;47.952;21.714;2023-04-25T12:11:40;3.17;;;2.10;;
43070;SDS011;36278;47.952;21.714;2023-04-25T12:14:09;3.37;;;1.90;;
43070;SDS011;36278;47.952;21.714;2023-04-25T12:16:46;2.87;;;1.90;;
43070;SDS011;36278;47.952;21.714;2023-04-25T12:19:14;4.63;;;2.30;;
43070;SDS011;36278;47.952;21.714;2023-04-25T12:21:41;2.93;;;2.03;;
43070;SDS011;36278;47.952;21.714;2023-04-25T12:24:15;10.10;;;2.33;;
43070;SDS011;36278;47.952;21.714;2023-04-25T12:26:58;4.40;;;2.10;;
43070;SDS011;36278;47.952;21.714;2023-04-25T12:29:26;5.30;;;2.20;;
43070;SDS011;36278;47.952;21.714;2023-04-25T12:31:53;3.17;;;1.80;;
43070;SDS011;36278;47.952;21.714;2023-04-25T12:34:20;3.50;;;2.03;;
43070;SDS011;36278;47.952;21.714;2023-04-25T12:36:46;4.00;;;2.27;;
43070;SDS011;36278;47.952;21.714;2023-04-25T12:39:19;2.20;;;1.80;;
43070;SDS011;36278;47.952;21.714;2023-04-25T12:41:49;3.27;;;2.40;;
43070;SDS011;36278;47.952;21.714;2023-04-25T12:44:18;4.60;;;2.40;;
43070;SDS011;36278;47.952;21.714;2023-04-25T12:46:44;3.50;;;2.80;;
43070;SDS011;36278;47.952;21.714;2023-04-25T12:49:10;2.23;;;1.80;;
43070;SDS011;36278;47.952;21.714;2023-04-25T12:51:36;2.20;;;1.83;;
43070;SDS011;36278;47.952;21.714;2023-04-25T12:54:02;5.37;;;2.03;;
43070;SDS011;36278;47.952;21.714;2023-04-25T12:56:29;3.00;;;1.90;;
43070;SDS011;36278;47.952;21.714;2023-04-25T12:58:58;3.23;;;2.23;;
43070;SDS011;36278;47.952;21.714;2023-04-25T13:01:24;3.40;;;1.90;;
43070;SDS011;36278;47.952;21.714;2023-04-25T13:03:50;1.87;;;1.53;;
43070;SDS011;36278;47.952;21.714;2023-04-25T13:06:16;4.40;;;2.80;;
43070;SDS011;36278;47.952;21.714;2023-04-25T13:08:44;3.07;;;1.90;;
43070;SDS011;36278;47.952;21.714;2023-04-25T13:11:09;3.13;;;1.67;;
43070;SDS011;36278;47.952;21.714;2023-04-25T13:13:36;7.27;;;2.40;;
43070;SDS011;36278;47.952;21.714;2023-04-25T13:16:03;2.20;;;1.53;;
43070;SDS011;36278;47.952;21.714;2023-04-25T13:18:30;2.93;;;1.63;;
43070;SDS011;36278;47.952;21.714;2023-04-25T13:20:56;2.30;;;1.70;;
43070;SDS011;36278;47.952;21.714;2023-04-25T13:23:24;1.70;;;1.20;;
43070;SDS011;36278;47.952;21.714;2023-04-25T13:25:51;2.13;;;1.47;;
43070;SDS011;36278;47.952;21.714;2023-04-25T13:28:17;3.23;;;1.37;;
43070;SDS011;36278;47.952;21.714;2023-04-25T13:30:43;2.77;;;1.70;;
43070;SDS011;36278;47.952;21.714;2023-04-25T13:33:09;1.80;;;1.37;;
43070;SDS011;36278;47.952;21.714;2023-04-25T13:35:36;4.63;;;1.70;;
43070;SDS011;36278;47.952;21.714;2023-04-25T13:38:02;1.90;;;1.03;;
43070;SDS011;36278;47.952;21.714;2023-04-25T13:40:28;1.30;;;1.10;;
43070;SDS011;36278;47.952;21.714;2023-04-25T13:42:54;1.23;;;0.93;;
43070;SDS011;36278;47.952;21.714;2023-04-25T13:45:20;1.53;;;0.90;;
43070;SDS011;36278;47.952;21.714;2023-04-25T13:47:46;1.90;;;1.20;;
43070;SDS011;36278;47.952;21.714;2023-04-25T13:50:12;1.30;;;1.10;;
43070;SDS011;36278;47.952;21.714;2023-04-25T13:52:38;2.13;;;1.10;;
43070;SDS011;36278;47.952;21.714;2023-04-25T13:55:04;1.97;;;1.00;;
43070;SDS011;36278;47.952;21.714;2023-04-25T13:57:32;1.47;;;1.00;;
43070;SDS011;36278;47.952;21.714;2023-04-25T13:59:58;1.67;;;1.10;;
43070;SDS011;36278;47.952;21.714;2023-04-25T14:02:24;1.47;;;1.10;;
43070;SDS011;36278;47.952;21.714;2023-04-25T14:04:51;1.97;;;1.07;;
43070;SDS011;36278;47.952;21.714;2023-04-25T14:07:16;3.13;;;1.63;;
43070;SDS011;36278;47.952;21.714;2023-04-25T14:09:43;1.53;;;1.10;;
43070;SDS011;36278;47.952;21.714;2023-04-25T14:12:09;1.20;;;1.00;;
43070;SDS011;36278;47.952;21.714;2023-04-25T14:14:35;1.57;;;1.23;;
43070;SDS011;36278;47.952;21.714;2023-04-25T14:17:00;2.40;;;1.77;;
43070;SDS011;36278;47.952;21.714;2023-04-25T14:19:26;2.67;;;1.50;;
43070;SDS011;36278;47.952;21.714;2023-04-25T14:21:51;2.73;;;1.40;;
43070;SDS011;36278;47.952;21.714;2023-04-25T14:24:17;5.27;;;2.30;;
43070;SDS011;36278;47.952;21.714;2023-04-25T14:26:43;1.80;;;1.70;;
43070;SDS011;36278;47.952;21.714;2023-04-25T14:29:08;2.50;;;1.90;;
43070;SDS011;36278;47.952;21.714;2023-04-25T14:31:36;3.30;;;1.77;;
43070;SDS011;36278;47.952;21.714;2023-04-25T14:34:03;3.57;;;2.40;;